Estación Meteorológica Peña el Pijo (Robertgarden) [ 12/16/19 01:23:18 CET ]

Fecha Hora Presion(HPa) Temp (°C) Humedad % Rocio (°C) Viento ( m/s) Direccion Lluvia 1Hora(mm) Lluvia 24H(mm) LLuvia Total(mm)
2019-Aug-25 01:01:58 1012.900 15.3 71 10.1         372.15
2019-Aug-25 02:01:41 1012.800 14.1 75 9.7         372.15
2019-Aug-25 03:01:54 1012.800 13.2 77 9.2         372.15
2019-Aug-25 04:01:55 1012.600 12.8 79 9.2         372.15
2019-Aug-25 05:03:19 1012.200 12.4 81 9.2         372.15
2019-Aug-25 06:01:47 1011.800 12.0 82 9.0         372.15
2019-Aug-25 07:01:42 1011.900 11.0 83 8.2         372.15
2019-Aug-25 08:01:47 1012.100 10.9 84 8.3         372.15
2019-Aug-25 09:01:43 1012.400 15.3 83 12.4         372.15
2019-Aug-25 10:01:37 1012.200 21.1 60 13.1         372.15
2019-Aug-25 11:01:48 1012.100 24.3 52 13.8         372.15
2019-Aug-25 12:01:53 1012.100 25.9 41 11.6         372.15
2019-Aug-25 13:01:50 1011.500 27.5 34 10.1         372.15
2019-Aug-25 14:01:39 1011.000 30.8 29 10.6         372.15
2019-Aug-25 15:01:44 1010.600 29.5 30 10.1         372.15
2019-Aug-25 16:01:47 1010.400 30.6 28 9.9         372.15
2019-Aug-25 17:01:41 1010.100 30.4 27 9.1 2.6 NNW     372.15
2019-Aug-25 18:01:51 1009.800 28.6 30 9.3         372.15
2019-Aug-25 19:01:57 1009.800 26.8 36 10.4         372.15
2019-Aug-25 20:01:53 1010.000 23.8 43 10.4         372.15
2019-Aug-25 21:01:44 1010.500 21.8 51 11.2         372.15
2019-Aug-25 22:01:51 1011.200 20.3 59 12.0         372.15
2019-Aug-25 23:01:55 1011.300 19.2 63 12.0         372.15

Temperatura Máxima:30°    Temperatura Mínima:10°
Presión Máxima:1012.900 Hpa    Presión Mínima:1009.800 Hpa


Volver